Terminal Aerodrome Forecast
Issued by NWS Kansas City/Pleasant Hill, MO

Home | Current Version | Previous Version | Text Only | Print | Product List | Glossary On
Versions: 1 2 3 4 5 6 7 8 9 10 11 12 13 14 15 16
000
FTUS43 KEAX 281120
TAFMCI
TAF
KMCI 281120Z 2812/2912 16010KT P6SM FEW250
     FM281700 19014G21KT P6SM SCT250
     FM290400 24008KT P6SM VCTS BKN050CB
     FM290600 31007KT 5SM -TSRA BKN050CB=

USA.gov is the U.S. government's official web portal to all federal, state and local government web resources and services.